Latest Weather Observations for Little Bay

IDN60801

Issued at 11:02 am EDT Thursday 23 February 2017 (issued every 30 minutes, with the page automatically refreshed every 10 minutes)

About weather observations | Map of weather stations | Latest weather observations for NSW | Other Formats
Station Details ID: 066051 Name: LITTLE BAY (THE COAST GOLF CLUB) Lat: -33.98 Lon: 151.25 Height: 22.0 m
Data from the previous 72 hours. | See also: Recent months for locations in New South Wales
Date/Time
EDT
Temp
°C
App
Temp
°C
Dew
Point
°C
Rel
Hum
%
Delta-T
°C
Wind Press
QNH
hPa
Press
MSL
hPa
Rain since
9am
mm
Dir  Spd
km/h
Gust
km/h
Spd
kts
Gust
kts
23/11:00am - - - - - NNE 22 28 12 15 - - -
23/10:30am - - - - - NNE 24 32 13 17 - - -
23/10:00am - - - - - N 24 35 13 19 - - -
23/09:30am - - - - - NNE 24 33 13 18 - - -
23/09:00am - - - - - N 22 33 12 18 - - -
23/08:30am - - - - - N 20 28 11 15 - - -
23/08:00am - - - - - N 19 28 10 15 - - -
23/07:30am - - - - - N 17 26 9 14 - - -
23/07:00am - - - - - N 15 24 8 13 - - -
23/06:30am - - - - - N 17 24 9 13 - - -
23/06:00am - - - - - N 19 28 10 15 - - -
23/05:30am - - - - - N 20 30 11 16 - - -
23/05:00am - - - - - N 22 32 12 17 - - -
23/04:30am - - - - - N 22 33 12 18 - - -
23/04:00am - - - - - N 20 30 11 16 - - -
23/03:30am - - - - - N 20 32 11 17 - - -
23/03:00am - - - - - N 19 30 10 16 - - -
23/02:30am - - - - - N 20 30 11 16 - - -
23/02:00am - - - - - N 19 30 10 16 - - -
23/01:30am - - - - - N 19 26 10 14 - - -
23/01:00am - - - - - N 19 30 10 16 - - -
23/12:30am - - - - - NNE 24 32 13 17 - - -
23/12:00am - - - - - NNE 30 43 16 23 - - -
 
Date/Time
EDT
Temp
°C
App
Temp
°C
Dew
Point
°C
Rel
Hum
%
Delta-T
°C
Wind Press
QNH
hPa
Press
MSL
hPa
Rain since
9am
mm
Dir  Spd
km/h
Gust
km/h
Spd
kts
Gust
kts
22/11:30pm - - - - - NNE 30 43 16 23 - - -
22/11:00pm - - - - - NNE 28 37 15 20 - - -
22/10:30pm - - - - - NNE 24 35 13 19 - - -
22/10:00pm - - - - - NNE 26 35 14 19 - - -
22/09:30pm - - - - - NNE 26 37 14 20 - - -
22/09:00pm - - - - - NNE 26 37 14 20 - - -
22/08:30pm - - - - - NNE 28 39 15 21 - - -
22/08:00pm - - - - - NNE 32 41 17 22 - - -
22/07:30pm - - - - - NNE 30 41 16 22 - - -
22/07:00pm - - - - - NNE 30 37 16 20 - - -
22/06:30pm - - - - - NNE 30 37 16 20 - - -
22/06:00pm - - - - - NNE 28 37 15 20 - - -
22/05:30pm - - - - - NNE 30 37 16 20 - - -
22/05:00pm - - - - - NNE 32 43 17 23 - - -
22/04:30pm - - - - - NNE 30 39 16 21 - - -
22/04:00pm - - - - - NNE 28 37 15 20 - - -
22/03:30pm - - - - - NE 30 39 16 21 - - -
22/03:00pm - - - - - NNE 30 37 16 20 - - -
22/02:30pm - - - - - NNE 28 37 15 20 - - -
22/02:00pm - - - - - NNE 28 37 15 20 - - -
22/01:30pm - - - - - NNE 28 37 15 20 - - -
22/01:00pm - - - - - NNE 26 33 14 18 - - -
22/12:30pm - - - - - NNE 26 35 14 19 - - -
22/12:00pm - - - - - NNE 22 32 12 17 - - -
22/11:30am - - - - - NNE 22 30 12 16 - - -
22/11:00am - - - - - N 20 30 11 16 - - -
22/10:30am - - - - - N 22 33 12 18 - - -
22/10:00am - - - - - NNE 24 33 13 18 - - -
22/09:30am - - - - - N 20 30 11 16 - - -
22/09:00am - - - - - N 17 28 9 15 - - -
22/08:30am - - - - - N 17 24 9 13 - - -
22/08:00am - - - - - N 9 13 5 7 - - -
22/07:30am - - - - - NNW 7 11 4 6 - - -
22/07:00am - - - - - NNW 9 13 5 7 - - -
22/06:30am - - - - - NNW 7 11 4 6 - - -
22/06:00am - - - - - NNW 9 13 5 7 - - -
22/05:30am - - - - - NNW 9 11 5 6 - - -
22/05:00am - - - - - N 9 13 5 7 - - -
22/04:30am - - - - - N 9 13 5 7 - - -
22/04:00am - - - - - N 9 15 5 8 - - -
22/03:30am - - - - - N 11 15 6 8 - - -
22/03:00am - - - - - N 11 17 6 9 - - -
22/02:30am - - - - - N 15 22 8 12 - - -
22/02:00am - - - - - N 15 22 8 12 - - -
22/01:30am - - - - - N 15 22 8 12 - - -
22/01:00am - - - - - N 19 24 10 13 - - -
22/12:30am - - - - - N 17 26 9 14 - - -
22/12:00am - - - - - N 17 24 9 13 - - -
 
Date/Time
EDT
Temp
°C
App
Temp
°C
Dew
Point
°C
Rel
Hum
%
Delta-T
°C
Wind Press
QNH
hPa
Press
MSL
hPa
Rain since
9am
mm
Dir  Spd
km/h
Gust
km/h
Spd
kts
Gust
kts
21/11:30pm - - - - - N 17 24 9 13 - - -
21/11:00pm - - - - - NNE 20 28 11 15 - - -
21/10:30pm - - - - - NNE 19 28 10 15 - - -
21/10:00pm - - - - - N 19 28 10 15 - - -
21/09:30pm - - - - - NNE 19 26 10 14 - - -
21/09:00pm - - - - - NNE 22 32 12 17 - - -
21/08:30pm - - - - - NNE 22 28 12 15 - - -
21/08:00pm - - - - - NNE 22 30 12 16 - - -
21/07:30pm - - - - - NE 19 28 10 15 - - -
21/07:00pm - - - - - ENE 22 32 12 17 - - -
21/06:30pm - - - - - NE 24 35 13 19 - - -
21/06:00pm - - - - - ENE 20 30 11 16 - - -
21/05:30pm - - - - - ENE 19 26 10 14 - - -
21/05:00pm - - - - - ENE 17 22 9 12 - - -
21/04:30pm - - - - - E 15 19 8 10 - - -
21/04:00pm - - - - - E 11 17 6 9 - - -
21/03:30pm - - - - - ESE 13 17 7 9 - - -
21/03:00pm - - - - - ESE 11 15 6 8 - - -
21/02:30pm - - - - - ESE 13 17 7 9 - - -
21/02:00pm - - - - - SE 11 13 6 7 - - -
21/01:30pm - - - - - SSE 15 20 8 11 - - -
21/01:00pm - - - - - S 15 20 8 11 - - -
21/12:30pm - - - - - S 19 24 10 13 - - -
21/12:00pm - - - - - S 17 24 9 13 - - -
21/11:30am - - - - - SSW 19 24 10 13 - - -
21/11:00am - - - - - SSW 15 20 8 11 - - -
21/10:30am - - - - - SSW 15 19 8 10 - - -
21/10:00am - - - - - SW 9 13 5 7 - - -
21/09:30am - - - - - WSW 9 11 5 6 - - -
21/09:00am - - - - - W 7 11 4 6 - - -
21/08:30am - - - - - W 7 11 4 6 - - -
21/08:00am - - - - - W 9 13 5 7 - - -
21/07:30am - - - - - WNW 7 11 4 6 - - -
21/07:00am - - - - - WNW 7 11 4 6 - - -
21/06:30am - - - - - WNW 9 13 5 7 - - -
21/06:00am - - - - - WNW 7 11 4 6 - - -
21/05:30am - - - - - WSW 7 9 4 5 - - -
21/05:00am - - - - - W 11 15 6 8 - - -
21/04:30am - - - - - WSW 11 15 6 8 - - -
21/04:00am - - - - - WSW 11 15 6 8 - - -
21/03:30am - - - - - WSW 9 13 5 7 - - -
21/03:00am - - - - - WSW 9 15 5 8 - - -
21/02:30am - - - - - WSW 9 13 5 7 - - -
21/02:00am - - - - - W 7 9 4 5 - - -
21/01:30am - - - - - WSW 11 15 6 8 - - -
21/01:00am - - - - - W 9 13 5 7 - - -
21/12:30am - - - - - W 7 11 4 6 - - -
21/12:00am - - - - - W 6 7 3 4 - - -
 
Date/Time
EDT
Temp
°C
App
Temp
°C
Dew
Point
°C
Rel
Hum
%
Delta-T
°C
Wind Press
QNH
hPa
Press
MSL
hPa
Rain since
9am
mm
Dir  Spd
km/h
Gust
km/h
Spd
kts
Gust
kts
20/11:30pm - - - - - NNW 6 6 3 3 - - -
20/11:00pm - - - - - N 4 6 2 3 - - -
20/10:30pm - - - - - N 2 6 1 3 - - -
20/10:00pm - - - - - N 6 9 3 5 - - -
20/09:30pm - - - - - NNE 6 9 3 5 - - -
20/09:00pm - - - - - NE 7 13 4 7 - - -
20/08:30pm - - - - - ENE 9 13 5 7 - - -
20/08:00pm - - - - - ENE 9 13 5 7 - - -
20/07:30pm - - - - - ENE 11 13 6 7 - - -
20/07:00pm - - - - - ENE 9 15 5 8 - - -
20/06:30pm - - - - - ENE 9 13 5 7 - - -
20/06:00pm - - - - - ENE 11 17 6 9 - - -
20/05:30pm - - - - - ENE 13 20 7 11 - - -
20/05:00pm - - - - - ENE 15 22 8 12 - - -
20/04:30pm - - - - - SSE 19 22 10 12 - - -
20/04:00pm - - - - - SW 9 13 5 7 - - -
20/03:30pm - - - - - WSW 9 17 5 9 - - -
20/03:00pm - - - - - SW 15 22 8 12 - - -
20/02:30pm - - - - - SW 15 24 8 13 - - -
20/02:00pm - - - - - SW 17 26 9 14 - - -
20/01:30pm - - - - - WSW 15 26 8 14 - - -
20/01:00pm - - - - - WSW 19 26 10 14 - - -
20/12:30pm - - - - - WSW 20 32 11 17 - - -
20/12:00pm - - - - - WSW 24 32 13 17 - - -
20/11:30am - - - - - W 20 32 11 17 - - -

Other Formats:

Comma delimited format used in spreadsheet applications
http://www.bom.gov.au/fwo/IDN60801/IDN60801.94780.axf

JavaScript Object Notation format (JSON) in row-major order
http://www.bom.gov.au/fwo/IDN60801/IDN60801.94780.json